Flight Track Log - Related Links

Times and Time Zones

All times are in EDT time to prevent confusion due to time zone crossing. See the N392ES flight status page for this flight to view local times or setup timezone preferences in your user account.

Time Position Orientation Groundspeed Altitude Reporting Facility
EDT Latitude Longitude Course Direction KTS MPH feet Rate Location/Type
Mon 01:38:00 PM 40.7058 -75.4064 108° East  Level FlightAware Approximate
Mon 01:39:00 PM 40.7004 -75.3850 108° East  Level FlightAware Approximate
Mon 01:40:00 PM 40.7000 -75.3625 90° East  Level FlightAware Approximate
Mon 01:41:00 PM 40.7000 -75.3399 90° East  Level FlightAware Approximate
Mon 01:42:00 PM 40.6962 -75.3182 108° East  Level FlightAware Approximate
Mon 01:43:00 PM 40.6909 -75.2967 108° East  Level FlightAware Approximate
Mon 01:44:00 PM 40.6855 -75.2753 108° East  Level FlightAware Approximate
Mon 01:45:00 PM 40.6802 -75.2539 108° East  Level FlightAware Approximate
Mon 01:45:55 PM 40.6167 -75.1167 102° East 135 155 4,900  Level New York TRACON
Mon 01:46:00 PM 40.6748 -75.2324 108° East  Level FlightAware Approximate
Mon 01:47:00 PM 40.6695 -75.2110 108° East  Level FlightAware Approximate
Mon 01:47:01 PM 40.6167 -75.0833 90° East 124 143 5,000  Level New York TRACON
Mon 01:48:00 PM 40.6641 -75.1896 108° East  Level FlightAware Approximate
Mon 01:48:01 PM 40.6000 -75.0333 114° Southeast 127 146 5,000  Level New York TRACON
Mon 01:48:55 PM 40.6000 -75.0000 90° East 127 146 5,000  Level New York TRACON
Mon 01:49:00 PM 40.6587 -75.1682 108° East  Level FlightAware Approximate
Mon 01:50:00 PM 40.6534 -75.1468 108° East  Level FlightAware Approximate
Mon 01:50:01 PM 40.5833 -74.9500 114° Southeast 124 143 5,000  Level New York TRACON
Mon 01:51:00 PM 40.6486 -75.1251 102° East  Level FlightAware Approximate
Mon 01:51:01 PM 40.5667 -74.9000 114° Southeast 122 140 5,000  Level New York TRACON
Mon 01:51:55 PM 40.5500 -74.8667 123° Southeast 129 148 4,500 -600 Descending New York TRACON
Mon 01:53:01 PM 40.5500 -74.8167 90° East 139 160 3,800 -619 Descending New York TRACON
Mon 01:54:01 PM 40.5500 -74.7667 90° East 129 148 3,200 -300 Descending New York TRACON
Mon 01:56:01 PM 40.5333 -74.7000 108° East 115 132 2,900 -33 Descending New York TRACON
Mon 01:57:01 PM 40.5167 -74.6500 114° Southeast 126 145 3,100 1,400 Climbing New York TRACON
Mon 01:58:01 PM 40.5167 -74.6167 90° East 124 143 5,700 -300 Climbing New York TRACON
Mon 01:59:01 PM 40.5000 -74.5667 114° Southeast 133 153 2,500 -200 Descending New York TRACON
Mon 02:00:01 PM 40.4833 -74.5333 123° Southeast 125 144 5,300 -316 Climbing New York TRACON
Mon 02:00:55 PM 40.4833 -74.5000 90° East 116 133 1,900 -1,684 Descending New York TRACON
Mon 02:01:55 PM 40.4667 -74.4500 114° Southeast 123 142 2,100 50 Climbing New York TRACON
Mon 02:02:55 PM 40.4667 -74.4167 90° East 116 133 2,000 -100 Descending New York TRACON
Mon 02:03:55 PM 40.4667 -74.3667 90° East 126 145 1,900 -150 Descending New York TRACON
Mon 02:04:55 PM 40.5000 -74.3667 360° North 98 113 1,700 -200 Descending New York TRACON
Mon 02:05:55 PM 40.5333 -74.3500 21° North 99 114 1,500 -200 Descending New York TRACON
Mon 02:07:00 PM 40.5569 -74.3170 47° Northeast  Level FlightAware Approximate
Mon 02:14:00 PM 40.6167 -74.2333 48° Northeast  Level FlightAware Approximate
Mon 02:15:00 PM 40.6174 -74.2446 48° Northeast  Level Estimated
Mon 02:16:00 PM 40.6174 -74.2446 48° Northeast  Level Estimated
Mon 02:17:00 PM 40.6174 -74.2446 48° Northeast  Level Estimated

Login

Don't have an account? Register now (free) for customized features, flight alerts, and more!